Latest Weather Observations for Bunbury

IDW60801

Issued at 6:02 am WST Sunday 21 December 2014 (issued every 30 minutes, with the page automatically refreshed every 10 minutes)

About weather observations | Map of weather stations | Latest weather observations for WA | Other Formats
Station Details ID: 009965 Name: BUNBURY Lat: -33.36 Lon: 115.64 Height: 5.2 m
Data from the previous 72 hours. | See also: Recent months at Bunbury
Date/Time
WST
Temp
°C
App
Temp
°C
Dew
Point
Rel
Hum
%
Delta-T
°C
Wind Press
QNH
hPa
Press
MSL
hPa
Rain
since 9 am
mm
Dir
 
Spd
km/h
Gust
km/h
Spd
kts
Gust
kts
21/06:00am 16.5 13.2 11.6 73 2.6 SSE 20 33 11 18 1018.8 1018.7 0.0
21/05:30am 16.4 14.4 12.8 79 2.0 SSE 15 26 8 14 1018.3 1018.2 0.0
21/05:00am 16.1 15.5 13.4 84 1.5 SSE 9 13 5 7 1018.3 1018.2 0.0
21/04:30am 15.3 15.2 13.2 87 1.2 S 6 11 3 6 1017.8 1017.7 0.0
21/04:00am 13.9 13.5 12.5 91 0.8 SSW 6 7 3 4 1017.6 1017.5 0.0
21/03:30am 14.2 13.2 12.4 89 1.0 S 9 13 5 7 1017.4 1017.3 0.0
21/03:00am 14.0 13.3 11.9 87 1.1 S 7 11 4 6 1017.2 1017.1 0.0
21/02:30am 14.3 13.7 11.8 85 1.3 SSW 6 7 3 4 1017.2 1017.1 0.0
21/02:00am 14.3 13.6 11.3 82 1.6 SSW 6 9 3 5 1017.3 1017.2 0.0
21/01:30am 15.4 14.2 11.6 78 2.0 SSE 9 13 5 7 1017.3 1017.2 0.0
21/01:00am 15.5 13.5 11.5 77 2.1 S 13 17 7 9 1017.5 1017.4 0.0
21/12:30am 16.1 14.4 11.3 73 2.6 S 11 15 6 8 1017.6 1017.5 0.0
21/12:00am 17.2 14.7 11.2 68 3.2 SSE 15 20 8 11 1017.3 1017.2 0.0
 
Date/Time
WST
Temp
°C
App
Temp
°C
Dew
Point
Rel
Hum
%
Delta-T
°C
Wind Press
QNH
hPa
Press
MSL
hPa
Rain
since 9 am
mm
Dir
 
Spd
km/h
Gust
km/h
Spd
kts
Gust
kts
20/11:30pm 17.7 14.9 11.3 66 3.5 SSE 17 26 9 14 1017.2 1017.1 0.0
20/11:00pm 17.8 15.4 11.4 66 3.5 SSE 15 22 8 12 1017.2 1017.1 0.0
20/10:30pm 18.1 15.3 11.2 64 3.7 SE 17 33 9 18 1017.0 1016.9 0.0
20/10:00pm 18.3 15.9 11.4 64 3.8 SSE 15 20 8 11 1016.8 1016.7 0.0
20/09:30pm 18.7 16.4 11.8 64 3.8 S 15 24 8 13 1016.6 1016.5 0.0
20/09:00pm 19.2 16.5 11.7 62 4.1 S 17 24 9 13 1016.2 1016.1 0.0
20/08:30pm 19.8 17.1 11.6 59 4.5 S 17 24 9 13 1015.7 1015.6 0.0
20/08:00pm 20.7 17.9 11.3 55 5.2 S 17 24 9 13 1015.1 1015.0 0.0
20/07:30pm 21.8 18.6 10.0 47 6.4 SSE 17 24 9 13 1014.5 1014.4 0.0
20/07:00pm 22.9 19.1 9.7 43 7.2 SSE 20 32 11 17 1013.6 1013.6 0.0
20/06:30pm 23.6 18.5 9.2 40 7.8 SSE 26 41 14 22 1013.0 1013.0 0.0
20/06:00pm 24.3 19.9 9.1 38 8.2 SE 22 39 12 21 1012.4 1012.4 0.0
20/05:30pm 25.0 19.5 9.3 37 8.6 SSE 28 43 15 23 1011.9 1011.9 0.0
20/05:08pm 25.4 19.2 9.3 36 8.8 SSE 32 50 17 27 1011.5 1011.5 0.0
20/05:00pm 25.8 20.0 9.6 36 8.9 SSE 30 41 16 22 1011.3 1011.3 0.0
20/04:30pm 26.2 20.9 10.0 36 9.0 SSE 28 43 15 23 1010.9 1010.9 0.0
20/04:00pm 26.7 21.1 10.0 35 9.3 SSE 30 46 16 25 1010.8 1010.8 0.0
20/03:55pm 27.7 22.4 10.0 33 9.9 SSE 28 46 15 25 1010.8 1010.8 0.0
20/03:30pm 27.5 22.6 9.8 33 9.8 SSE 26 46 14 25 1010.6 1010.6 0.0
20/03:00pm 27.9 22.4 9.2 31 10.3 S 28 43 15 23 1010.4 1010.4 0.0
20/02:30pm 27.9 22.2 9.7 32 10.1 S 30 46 16 25 1010.3 1010.3 0.0
20/02:09pm 27.9 22.7 10.1 33 10.0 SSE 28 52 15 28 1010.2 1010.2 0.0
20/02:00pm 28.2 23.3 11.3 35 9.7 S 28 39 15 21 1010.3 1010.3 0.0
20/01:30pm 27.9 22.0 12.3 38 9.1 S 35 52 19 28 1010.1 1010.1 0.0
20/01:12pm 27.6 23.0 12.4 39 8.8 S 28 46 15 25 1009.9 1009.9 0.0
20/01:00pm 27.6 22.5 13.2 41 8.5 S 32 46 17 25 1010.0 1010.0 0.0
20/12:30pm 27.0 23.2 13.7 44 7.9 S 26 37 14 20 1009.9 1009.9 0.0
20/12:17pm 26.4 21.4 13.5 45 7.6 SSE 32 50 17 27 1010.0 1010.0 0.0
20/12:00pm 25.6 21.7 14.4 50 6.7 S 28 41 15 22 1010.0 1010.0 0.0
20/11:30am 25.4 21.1 15.4 54 6.0 S 32 46 17 25 1009.8 1009.8 0.0
20/11:00am 25.2 20.9 15.8 56 5.7 S 33 48 18 26 1009.6 1009.6 0.0
20/10:30am 25.4 21.5 15.4 54 6.0 S 30 44 16 24 1009.4 1009.4 0.0
20/10:00am 25.3 21.9 15.9 56 5.7 SSW 28 41 15 22 1009.1 1009.1 0.0
20/09:30am 24.9 22.0 15.2 54 5.8 SSE 24 37 13 20 1009.1 1009.1 0.0
20/09:00am 23.7 19.9 14.7 57 5.3 S 28 37 15 20 1009.1 1009.1 0.4
20/08:30am 23.2 20.1 14.5 58 5.1 S 24 33 13 18 1009.1 1009.1 0.4
20/08:00am 21.9 18.9 13.8 60 4.7 S 22 37 12 20 1009.2 1009.2 0.4
20/07:30am 21.2 18.3 13.9 63 4.2 S 22 32 12 17 1009.3 1009.3 0.4
20/07:00am 20.1 17.2 14.0 68 3.5 S 22 32 12 17 1009.2 1009.2 0.4
20/06:30am 19.3 17.2 14.6 74 2.7 S 19 26 10 14 1009.1 1009.1 0.4
20/06:00am 18.1 15.8 14.2 78 2.2 S 19 30 10 16 1008.8 1008.8 0.4
20/05:30am 18.0 16.4 13.9 77 2.3 SSW 15 22 8 12 1008.5 1008.5 0.4
20/05:00am 18.5 17.2 13.6 73 2.8 SSW 13 19 7 10 1007.8 1007.8 0.4
20/04:30am 19.5 18.2 12.5 64 3.9 SSW 11 15 6 8 1007.5 1007.5 0.4
20/04:00am 19.2 18.1 13.2 68 3.4 S 11 15 6 8 1007.3 1007.3 0.4
20/03:30am 19.2 18.5 13.2 68 3.4 S 9 11 5 6 1007.0 1007.0 0.4
20/03:00am 19.3 18.3 13.5 69 3.3 SSW 11 13 6 7 1007.1 1007.1 0.4
20/02:30am 20.8 20.0 12.8 60 4.5 SSE 9 13 5 7 1007.3 1007.3 0.4
20/02:00am 20.8 20.1 13.3 62 4.3 SSE 9 11 5 6 1007.6 1007.6 0.4
20/01:30am 20.3 19.6 14.2 68 3.5 S 11 13 6 7 1008.0 1008.0 0.4
20/01:00am 20.9 20.1 14.1 65 4.0 SE 11 19 6 10 1008.5 1008.5 0.4
20/12:30am 21.2 20.2 14.6 66 3.9 SSE 13 22 7 12 1008.8 1008.8 0.4
20/12:00am 22.8 22.1 14.4 59 4.9 SSE 11 20 6 11 1009.4 1009.4 0.0
 
Date/Time
WST
Temp
°C
App
Temp
°C
Dew
Point
Rel
Hum
%
Delta-T
°C
Wind Press
QNH
hPa
Press
MSL
hPa
Rain
since 9 am
mm
Dir
 
Spd
km/h
Gust
km/h
Spd
kts
Gust
kts
19/11:30pm 22.4 21.2 15.0 63 4.4 SSE 15 20 8 11 1009.5 1009.5 0.0
19/11:00pm 22.2 21.5 15.5 66 4.0 S 13 20 7 11 1010.1 1010.1 0.0
19/10:30pm 22.8 22.1 15.4 63 4.4 SSE 13 24 7 13 1009.9 1009.9 0.0
19/10:00pm 23.0 22.4 15.6 63 4.4 SSE 13 22 7 12 1010.2 1010.2 0.0
19/09:30pm 23.3 21.5 15.4 61 4.7 S 19 26 10 14 1010.1 1010.1 0.0
19/09:00pm 24.0 22.5 15.2 58 5.3 S 17 24 9 13 1009.6 1009.6 0.0
19/08:30pm 24.5 22.3 14.3 53 6.0 S 19 30 10 16 1009.2 1009.2 0.0
19/08:00pm 25.4 22.9 13.6 48 6.9 S 19 28 10 15 1009.0 1009.0 0.0
19/07:30pm 26.1 23.2 12.9 44 7.7 S 20 32 11 17 1008.5 1008.5 0.0
19/07:00pm 27.4 24.4 12.6 40 8.6 S 20 37 11 20 1008.3 1008.3 0.0
19/06:30pm 29.3 26.0 12.7 36 9.8 S 22 39 12 21 1008.0 1008.0 0.0
19/06:00pm 31.2 26.8 13.0 33 10.9 SSW 28 39 15 21 1007.8 1007.8 0.0
19/05:30pm 33.7 30.0 11.5 26 13.1 SSW 22 35 12 19 1007.7 1007.7 0.0
19/05:00pm 32.8 27.6 5.4 18 14.6 SW 22 39 12 21 1007.8 1007.8 0.0
19/04:30pm 34.2 28.7 1.9 13 16.4 SW 20 28 11 15 1008.3 1008.3 0.0
19/04:00pm 34.4 28.5 2.0 13 16.5 SW 22 32 12 17 1008.8 1008.8 0.0
19/03:30pm 33.5 28.8 5.1 17 15.1 SW 19 28 10 15 1009.1 1009.1 0.0
19/03:00pm 32.7 28.6 6.1 19 14.3 WSW 17 24 9 13 1009.6 1009.6 0.0
19/02:30pm 32.1 28.3 9.0 24 13.0 SW 19 22 10 12 1010.1 1010.1 0.0
19/02:00pm 32.4 29.3 11.6 28 12.2 SW 19 26 10 14 1010.6 1010.6 0.0
19/01:30pm 31.3 28.4 11.1 29 11.7 WSW 17 24 9 13 1011.1 1011.1 0.0
19/01:00pm 30.7 27.7 12.1 32 10.9 SW 19 24 10 13 1011.6 1011.6 0.0
19/12:30pm 30.7 29.0 12.6 33 10.7 WSW 13 17 7 9 1012.0 1012.0 0.0
19/12:00pm 32.6 31.4 12.8 30 11.8 SW 11 19 6 10 1012.6 1012.6 0.0
19/11:30am 32.8 31.6 9.6 24 13.2 S 6 11 3 6 1013.0 1013.0 0.0
19/11:00am 32.0 30.9 10.1 26 12.5 ESE 6 15 3 8 1013.3 1013.3 0.0
19/10:30am 31.2 29.5 10.0 27 12.0 E 9 15 5 8 1013.6 1013.6 0.0
19/10:00am 30.6 29.3 11.1 30 11.2 ENE 9 17 5 9 1013.8 1013.8 0.0
19/09:30am 28.5 26.5 10.2 32 10.3 E 11 17 6 9 1014.3 1014.2 0.0
19/09:00am 27.0 24.3 10.2 35 9.4 E 15 22 8 12 1014.7 1014.6 -
19/08:30am 25.6 22.7 9.8 37 8.7 ENE 15 24 8 13 1015.0 1014.9 -
19/08:00am 24.3 20.5 9.8 40 7.9 ENE 20 30 11 16 1015.3 1015.2 -
19/07:30am 23.7 21.3 10.0 42 7.5 ENE 13 24 7 13 1015.3 1015.2 -
19/07:00am 21.9 18.9 9.1 44 6.8 E 15 24 8 13 1015.4 1015.3 -
19/06:30am 20.5 17.8 9.1 48 6.0 E 13 24 7 13 1015.3 1015.2 -
19/06:00am 18.5 16.6 9.0 54 5.0 E 9 19 5 10 1015.4 1015.3 -
19/05:30am 14.9 14.0 9.1 68 3.0 SSE 4 6 2 3 1015.4 1015.3 -
19/05:00am 13.6 12.8 8.2 70 2.7 S 2 11 1 6 1015.2 1015.1 -
19/04:30am 15.2 13.8 8.7 65 3.3 SSE 6 9 3 5 1015.1 1015.0 -
19/04:00am 15.6 14.8 9.5 67 3.2 ESE 4 7 2 4 1014.9 1014.8 -
19/03:30am 16.1 14.4 10.0 67 3.2 ESE 9 13 5 7 1014.7 1014.6 -
19/03:00am 15.5 14.2 10.1 70 2.8 ESE 7 9 4 5 1014.6 1014.5 0.0
19/02:30am 16.6 15.5 10.7 68 3.1 SE 7 11 4 6 1014.7 1014.6 -
19/02:00am 17.3 15.6 11.1 67 3.3 SE 11 15 6 8 1014.6 1014.5 -
19/01:30am 17.5 15.8 11.3 67 3.4 SE 11 15 6 8 1014.7 1014.6 -
19/01:00am 18.0 16.8 11.6 66 3.5 SE 9 15 5 8 1014.9 1014.8 -
19/12:30am 17.8 17.0 11.8 68 3.3 SE 7 15 4 8 1015.3 1015.2 -
19/12:00am 18.1 17.0 11.9 67 3.4 SSE 9 13 5 7 1015.6 1015.5 -
 
Date/Time
WST
Temp
°C
App
Temp
°C
Dew
Point
Rel
Hum
%
Delta-T
°C
Wind Press
QNH
hPa
Press
MSL
hPa
Rain
since 9 am
mm
Dir
 
Spd
km/h
Gust
km/h
Spd
kts
Gust
kts
18/11:30pm 18.2 15.9 11.7 66 3.6 SE 15 20 8 11 1015.6 1015.5 -
18/11:00pm 18.2 16.0 12.0 67 3.4 SSE 15 22 8 12 1015.9 1015.8 -
18/10:30pm 17.9 15.7 12.1 69 3.2 SSE 15 22 8 12 1016.0 1015.9 -
18/10:00pm 18.2 16.1 12.4 69 3.2 SSE 15 22 8 12 1016.0 1015.9 -
18/09:30pm 18.6 16.1 12.4 67 3.5 S 17 24 9 13 1015.9 1015.8 -
18/09:00pm 19.2 16.8 12.5 65 3.7 S 17 24 9 13 1015.8 1015.7 0.0
18/08:30pm 19.9 17.0 12.4 62 4.2 S 19 28 10 15 1015.6 1015.5 -
18/08:00pm 20.9 18.1 12.6 59 4.7 S 19 30 10 16 1015.5 1015.4 -
18/07:30pm 22.1 19.4 12.9 56 5.3 S 19 28 10 15 1015.2 1015.1 -
18/07:00pm 23.7 20.9 13.3 52 6.0 SSW 20 32 11 17 1014.8 1014.7 -
18/06:30pm 25.3 23.1 13.2 47 7.1 SSW 17 30 9 16 1014.5 1014.4 -
18/06:00pm 25.0 22.8 14.8 53 6.1 SW 20 32 11 17 1014.2 1014.1 -
18/05:30pm 24.0 21.5 15.2 58 5.3 SW 22 32 12 17 1014.2 1014.1 -
18/05:00pm 24.2 21.5 14.6 55 5.7 SW 22 33 12 18 1014.4 1014.3 -
18/04:30pm 24.5 21.6 14.0 52 6.2 SW 22 33 12 18 1014.7 1014.6 -
18/04:00pm 24.1 21.1 13.6 52 6.1 WSW 22 32 12 17 1015.0 1014.9 -
18/03:30pm 24.4 20.8 12.0 46 7.1 SW 22 32 12 17 1015.3 1015.2 -
18/03:00pm 24.0 20.7 11.7 46 6.9 SW 20 32 11 17 1015.6 1015.5 -
18/02:30pm 23.3 20.7 13.8 55 5.5 WSW 20 26 11 14 1016.0 1015.9 -
18/02:00pm 23.4 20.6 14.4 57 5.3 WSW 22 30 12 16 1016.4 1016.3 -
18/01:30pm 23.1 19.8 11.5 48 6.5 WSW 20 28 11 15 1016.5 1016.4 -
18/01:00pm 23.1 20.5 12.1 50 6.2 WSW 17 22 9 12 1016.8 1016.7 -
18/12:30pm 23.6 21.6 12.6 50 6.3 WSW 15 22 8 12 1017.1 1017.0 -
18/12:00pm 22.3 19.4 11.1 49 6.2 W 17 22 9 12 1017.4 1017.3 -
18/11:30am 22.8 20.4 11.5 49 6.3 W 15 22 8 12 1017.5 1017.4 -
18/11:00am 23.2 21.5 11.3 47 6.6 W 11 17 6 9 1017.8 1017.7 -
18/10:30am 24.7 22.4 7.4 33 9.1 E 9 17 5 9 1018.0 1017.9 -
18/10:00am 22.9 20.8 8.2 39 7.7 SSE 9 17 5 9 1018.3 1018.2 -
18/08:30am 19.6 16.6 9.2 51 5.5 E 15 20 8 11 - - -
18/08:00am 19.3 16.5 10.0 55 5.0 ESE 15 24 8 13 - - -
18/07:30am 17.4 14.5 9.8 61 4.0 E 15 22 8 12 - - -
18/07:00am 16.1 14.9 10.2 68 3.1 ESE 7 9 4 5 - - -
18/06:30am 14.3 13.2 9.9 75 2.3 ESE 6 7 3 4 - - -

Other Formats:

Comma delimited format used in spreadsheet applications
http://www.bom.gov.au/fwo/IDW60801/IDW60801.94604.axf

JavaScript Object Notation format (JSON) in row-major order
http://www.bom.gov.au/fwo/IDW60801/IDW60801.94604.json